sensor_id;sensor_type;location;lat;lon;timestamp;pressure;altitude;pressure_sealevel;temperature
19666;BMP180;9980;51.020;7.772;2022-10-24T00:02:21;96844.00;;;18.20
19666;BMP180;9980;51.020;7.772;2022-10-24T00:05:11;96863.00;;;18.10
19666;BMP180;9980;51.020;7.772;2022-10-24T00:07:52;96860.00;;;18.20
19666;BMP180;9980;51.020;7.772;2022-10-24T00:10:43;96848.00;;;18.10
19666;BMP180;9980;51.020;7.772;2022-10-24T00:13:24;96860.00;;;18.10
19666;BMP180;9980;51.020;7.772;2022-10-24T00:16:11;96863.00;;;18.10
19666;BMP180;9980;51.020;7.772;2022-10-24T00:18:52;96845.00;;;18.10
19666;BMP180;9980;51.020;7.772;2022-10-24T00:21:40;96852.00;;;18.10
19666;BMP180;9980;51.020;7.772;2022-10-24T00:24:20;96846.00;;;18.10
19666;BMP180;9980;51.020;7.772;2022-10-24T00:27:07;96845.00;;;18.10
19666;BMP180;9980;51.020;7.772;2022-10-24T00:29:49;96845.00;;;18.10
19666;BMP180;9980;51.020;7.772;2022-10-24T00:32:44;96844.00;;;18.10
19666;BMP180;9980;51.020;7.772;2022-10-24T00:35:18;96847.00;;;18.10
19666;BMP180;9980;51.020;7.772;2022-10-24T00:38:13;96855.00;;;18.00
19666;BMP180;9980;51.020;7.772;2022-10-24T00:40:46;96845.00;;;18.10
19666;BMP180;9980;51.020;7.772;2022-10-24T00:43:40;96846.00;;;18.00
19666;BMP180;9980;51.020;7.772;2022-10-24T00:46:16;96852.00;;;18.10
19666;BMP180;9980;51.020;7.772;2022-10-24T00:49:15;96839.00;;;18.00
19666;BMP180;9980;51.020;7.772;2022-10-24T00:52:05;96833.00;;;18.00
19666;BMP180;9980;51.020;7.772;2022-10-24T00:55:03;96838.00;;;18.00
19666;BMP180;9980;51.020;7.772;2022-10-24T00:57:49;96832.00;;;18.10
19666;BMP180;9980;51.020;7.772;2022-10-24T01:00:41;96831.00;;;18.10
19666;BMP180;9980;51.020;7.772;2022-10-24T01:03:21;96829.00;;;18.10
19666;BMP180;9980;51.020;7.772;2022-10-24T01:09:42;96824.00;;;18.00
19666;BMP180;9980;51.020;7.772;2022-10-24T01:15:48;96828.00;;;18.00
19666;BMP180;9980;51.020;7.772;2022-10-24T01:19:38;96811.00;;;18.00
19666;BMP180;9980;51.020;7.772;2022-10-24T01:22:32;96810.00;;;18.00
19666;BMP180;9980;51.020;7.772;2022-10-24T01:32:36;96799.00;;;17.90
19666;BMP180;9980;51.020;7.772;2022-10-24T01:41:47;96807.00;;;17.90
19666;BMP180;9980;51.020;7.772;2022-10-24T01:44:40;96811.00;;;17.90
19666;BMP180;9980;51.020;7.772;2022-10-24T01:47:27;96806.00;;;17.90
19666;BMP180;9980;51.020;7.772;2022-10-24T01:50:12;96804.00;;;17.80
19666;BMP180;9980;51.020;7.772;2022-10-24T01:53:01;96800.00;;;17.80
19666;BMP180;9980;51.020;7.772;2022-10-24T01:55:36;96814.00;;;17.80
19666;BMP180;9980;51.020;7.772;2022-10-24T01:58:32;96797.00;;;17.70
19666;BMP180;9980;51.020;7.772;2022-10-24T02:01:18;96806.00;;;17.60
19666;BMP180;9980;51.020;7.772;2022-10-24T02:04:10;96798.00;;;17.60
19666;BMP180;9980;51.020;7.772;2022-10-24T02:06:56;96792.00;;;17.50
19666;BMP180;9980;51.020;7.772;2022-10-24T02:09:52;96784.00;;;17.50
19666;BMP180;9980;51.020;7.772;2022-10-24T02:12:36;96792.00;;;17.50
19666;BMP180;9980;51.020;7.772;2022-10-24T02:15:44;96787.00;;;17.40
19666;BMP180;9980;51.020;7.772;2022-10-24T02:18:20;96781.00;;;17.40
19666;BMP180;9980;51.020;7.772;2022-10-24T02:21:31;96779.00;;;17.40
19666;BMP180;9980;51.020;7.772;2022-10-24T02:25:09;96771.00;;;17.40
19666;BMP180;9980;51.020;7.772;2022-10-24T02:30:19;96775.00;;;17.40
19666;BMP180;9980;51.020;7.772;2022-10-24T02:33:15;96768.00;;;17.40
19666;BMP180;9980;51.020;7.772;2022-10-24T02:35:58;96777.00;;;17.50
19666;BMP180;9980;51.020;7.772;2022-10-24T02:38:47;96761.00;;;17.50
19666;BMP180;9980;51.020;7.772;2022-10-24T02:41:34;96770.00;;;17.50
19666;BMP180;9980;51.020;7.772;2022-10-24T02:44:31;96753.00;;;17.50
19666;BMP180;9980;51.020;7.772;2022-10-24T02:47:13;96763.00;;;17.50
19666;BMP180;9980;51.020;7.772;2022-10-24T02:50:08;96761.00;;;17.50
19666;BMP180;9980;51.020;7.772;2022-10-24T02:52:49;96752.00;;;17.60
19666;BMP180;9980;51.020;7.772;2022-10-24T02:55:43;96757.00;;;17.60
19666;BMP180;9980;51.020;7.772;2022-10-24T02:58:16;96777.00;;;17.60
19666;BMP180;9980;51.020;7.772;2022-10-24T03:01:10;96753.00;;;17.60
19666;BMP180;9980;51.020;7.772;2022-10-24T03:03:43;96761.00;;;17.70
19666;BMP180;9980;51.020;7.772;2022-10-24T03:06:38;96757.00;;;17.60
19666;BMP180;9980;51.020;7.772;2022-10-24T03:09:11;96746.00;;;17.70
19666;BMP180;9980;51.020;7.772;2022-10-24T03:12:05;96745.00;;;17.70
19666;BMP180;9980;51.020;7.772;2022-10-24T03:14:39;96760.00;;;17.70
19666;BMP180;9980;51.020;7.772;2022-10-24T03:17:33;96764.00;;;17.70
19666;BMP180;9980;51.020;7.772;2022-10-24T03:20:06;96755.00;;;17.70
19666;BMP180;9980;51.020;7.772;2022-10-24T03:23:01;96749.00;;;17.70
19666;BMP180;9980;51.020;7.772;2022-10-24T03:25:41;96758.00;;;17.80
19666;BMP180;9980;51.020;7.772;2022-10-24T03:28:29;96749.00;;;17.80
19666;BMP180;9980;51.020;7.772;2022-10-24T03:31:09;96759.00;;;17.80
19666;BMP180;9980;51.020;7.772;2022-10-24T03:33:57;96755.00;;;17.80
19666;BMP180;9980;51.020;7.772;2022-10-24T03:36:38;96734.00;;;17.80
19666;BMP180;9980;51.020;7.772;2022-10-24T03:39:25;96754.00;;;17.80
19666;BMP180;9980;51.020;7.772;2022-10-24T03:42:06;96747.00;;;17.80
19666;BMP180;9980;51.020;7.772;2022-10-24T03:44:53;96725.00;;;17.80
19666;BMP180;9980;51.020;7.772;2022-10-24T03:47:33;96723.00;;;17.90
19666;BMP180;9980;51.020;7.772;2022-10-24T03:50:20;96732.00;;;17.80
19666;BMP180;9980;51.020;7.772;2022-10-24T03:53:00;96735.00;;;17.80
19666;BMP180;9980;51.020;7.772;2022-10-24T03:55:55;96739.00;;;17.80
19666;BMP180;9980;51.020;7.772;2022-10-24T03:58:36;96730.00;;;17.80
19666;BMP180;9980;51.020;7.772;2022-10-24T04:01:30;96729.00;;;17.80
19666;BMP180;9980;51.020;7.772;2022-10-24T04:04:03;96725.00;;;17.80
19666;BMP180;9980;51.020;7.772;2022-10-24T04:06:57;96726.00;;;17.80
19666;BMP180;9980;51.020;7.772;2022-10-24T04:09:39;96745.00;;;17.80
19666;BMP180;9980;51.020;7.772;2022-10-24T04:12:33;96749.00;;;17.80
19666;BMP180;9980;51.020;7.772;2022-10-24T04:15:13;96734.00;;;17.80
19666;BMP180;9980;51.020;7.772;2022-10-24T04:18:07;96733.00;;;17.80
19666;BMP180;9980;51.020;7.772;2022-10-24T04:20:48;96751.00;;;17.80
19666;BMP180;9980;51.020;7.772;2022-10-24T04:23:35;96746.00;;;17.80
19666;BMP180;9980;51.020;7.772;2022-10-24T04:26:20;96749.00;;;17.80
19666;BMP180;9980;51.020;7.772;2022-10-24T04:29:08;96748.00;;;17.80
19666;BMP180;9980;51.020;7.772;2022-10-24T04:31:48;96742.00;;;17.80
19666;BMP180;9980;51.020;7.772;2022-10-24T04:34:35;96727.00;;;17.80
19666;BMP180;9980;51.020;7.772;2022-10-24T04:37:15;96733.00;;;17.90
19666;BMP180;9980;51.020;7.772;2022-10-24T04:40:03;96741.00;;;17.80
19666;BMP180;9980;51.020;7.772;2022-10-24T04:42:43;96734.00;;;17.90
19666;BMP180;9980;51.020;7.772;2022-10-24T04:45:30;96742.00;;;17.80
19666;BMP180;9980;51.020;7.772;2022-10-24T04:48:10;96729.00;;;17.80
19666;BMP180;9980;51.020;7.772;2022-10-24T04:51:04;96729.00;;;17.80
19666;BMP180;9980;51.020;7.772;2022-10-24T04:53:38;96734.00;;;17.90
19666;BMP180;9980;51.020;7.772;2022-10-24T04:56:32;96740.00;;;17.80
19666;BMP180;9980;51.020;7.772;2022-10-24T04:59:05;96727.00;;;17.80
19666;BMP180;9980;51.020;7.772;2022-10-24T05:01:59;96724.00;;;17.80
19666;BMP180;9980;51.020;7.772;2022-10-24T05:04:32;96719.00;;;17.80
19666;BMP180;9980;51.020;7.772;2022-10-24T05:07:26;96724.00;;;17.80
19666;BMP180;9980;51.020;7.772;2022-10-24T05:09:59;96726.00;;;17.80
19666;BMP180;9980;51.020;7.772;2022-10-24T05:12:53;96741.00;;;17.80
19666;BMP180;9980;51.020;7.772;2022-10-24T05:15:26;96739.00;;;17.80
19666;BMP180;9980;51.020;7.772;2022-10-24T05:18:21;96743.00;;;17.80
19666;BMP180;9980;51.020;7.772;2022-10-24T05:21:01;96740.00;;;17.80
19666;BMP180;9980;51.020;7.772;2022-10-24T05:23:55;96751.00;;;17.80
19666;BMP180;9980;51.020;7.772;2022-10-24T05:26:35;96752.00;;;17.80
19666;BMP180;9980;51.020;7.772;2022-10-24T05:29:29;96725.00;;;17.80
19666;BMP180;9980;51.020;7.772;2022-10-24T05:32:09;96743.00;;;17.80
19666;BMP180;9980;51.020;7.772;2022-10-24T05:34:56;96746.00;;;17.80
19666;BMP180;9980;51.020;7.772;2022-10-24T05:37:37;96720.00;;;17.80
19666;BMP180;9980;51.020;7.772;2022-10-24T05:40:25;96723.00;;;17.80
19666;BMP180;9980;51.020;7.772;2022-10-24T05:43:05;96717.00;;;17.80
19666;BMP180;9980;51.020;7.772;2022-10-24T05:45:59;96724.00;;;17.80
19666;BMP180;9980;51.020;7.772;2022-10-24T05:48:32;96715.00;;;17.80
19666;BMP180;9980;51.020;7.772;2022-10-24T05:51:26;96728.00;;;17.70
19666;BMP180;9980;51.020;7.772;2022-10-24T05:53:59;96742.00;;;17.70
19666;BMP180;9980;51.020;7.772;2022-10-24T05:56:53;96755.00;;;17.70
19666;BMP180;9980;51.020;7.772;2022-10-24T05:59:26;96741.00;;;17.70
19666;BMP180;9980;51.020;7.772;2022-10-24T06:02:20;96764.00;;;17.70
19666;BMP180;9980;51.020;7.772;2022-10-24T06:05:01;96758.00;;;17.70
19666;BMP180;9980;51.020;7.772;2022-10-24T06:07:58;96752.00;;;17.70
19666;BMP180;9980;51.020;7.772;2022-10-24T06:10:31;96755.00;;;17.70
19666;BMP180;9980;51.020;7.772;2022-10-24T06:13:12;96754.00;;;17.70
19666;BMP180;9980;51.020;7.772;2022-10-24T06:16:11;96745.00;;;17.70
19666;BMP180;9980;51.020;7.772;2022-10-24T06:18:44;96751.00;;;17.70
19666;BMP180;9980;51.020;7.772;2022-10-24T06:21:38;96758.00;;;17.70
19666;BMP180;9980;51.020;7.772;2022-10-24T06:24:11;96755.00;;;17.70
19666;BMP180;9980;51.020;7.772;2022-10-24T06:27:05;96744.00;;;17.70
19666;BMP180;9980;51.020;7.772;2022-10-24T06:29:39;96740.00;;;17.70
19666;BMP180;9980;51.020;7.772;2022-10-24T06:32:33;96742.00;;;17.70
19666;BMP180;9980;51.020;7.772;2022-10-24T06:35:07;96745.00;;;17.80
19666;BMP180;9980;51.020;7.772;2022-10-24T06:38:02;96748.00;;;17.80
19666;BMP180;9980;51.020;7.772;2022-10-24T06:40:38;96741.00;;;17.80
19666;BMP180;9980;51.020;7.772;2022-10-24T06:43:32;96735.00;;;17.80
19666;BMP180;9980;51.020;7.772;2022-10-24T06:46:10;96746.00;;;17.80
19666;BMP180;9980;51.020;7.772;2022-10-24T06:48:59;96752.00;;;17.80
19666;BMP180;9980;51.020;7.772;2022-10-24T06:51:53;96769.00;;;17.80
19666;BMP180;9980;51.020;7.772;2022-10-24T06:54:26;96755.00;;;17.90
19666;BMP180;9980;51.020;7.772;2022-10-24T06:57:21;96757.00;;;17.90
19666;BMP180;9980;51.020;7.772;2022-10-24T06:59:54;96760.00;;;17.90
19666;BMP180;9980;51.020;7.772;2022-10-24T07:02:48;96760.00;;;17.90
19666;BMP180;9980;51.020;7.772;2022-10-24T07:05:21;96755.00;;;18.00
19666;BMP180;9980;51.020;7.772;2022-10-24T07:08:15;96757.00;;;18.00
19666;BMP180;9980;51.020;7.772;2022-10-24T07:10:55;96747.00;;;18.00
19666;BMP180;9980;51.020;7.772;2022-10-24T07:13:42;96775.00;;;18.00
19666;BMP180;9980;51.020;7.772;2022-10-24T07:16:23;96756.00;;;18.10
19666;BMP180;9980;51.020;7.772;2022-10-24T07:19:18;96756.00;;;18.10
19666;BMP180;9980;51.020;7.772;2022-10-24T07:21:58;96770.00;;;18.20
19666;BMP180;9980;51.020;7.772;2022-10-24T07:24:45;96776.00;;;18.20
19666;BMP180;9980;51.020;7.772;2022-10-24T07:27:25;96789.00;;;18.20
19666;BMP180;9980;51.020;7.772;2022-10-24T07:30:16;96778.00;;;18.20
19666;BMP180;9980;51.020;7.772;2022-10-24T07:32:57;96797.00;;;18.30
19666;BMP180;9980;51.020;7.772;2022-10-24T07:35:51;96780.00;;;18.30
19666;BMP180;9980;51.020;7.772;2022-10-24T07:38:25;96777.00;;;18.30
19666;BMP180;9980;51.020;7.772;2022-10-24T07:41:20;96790.00;;;18.40
19666;BMP180;9980;51.020;7.772;2022-10-24T07:43:53;96788.00;;;18.40
19666;BMP180;9980;51.020;7.772;2022-10-24T07:46:48;96777.00;;;18.40
19666;BMP180;9980;51.020;7.772;2022-10-24T07:49:21;96767.00;;;18.40
19666;BMP180;9980;51.020;7.772;2022-10-24T07:52:15;96778.00;;;18.50
19666;BMP180;9980;51.020;7.772;2022-10-24T07:54:48;96775.00;;;18.50
19666;BMP180;9980;51.020;7.772;2022-10-24T07:57:42;96781.00;;;18.50
19666;BMP180;9980;51.020;7.772;2022-10-24T08:00:16;96789.00;;;18.50
19666;BMP180;9980;51.020;7.772;2022-10-24T08:02:57;96797.00;;;18.60
19666;BMP180;9980;51.020;7.772;2022-10-24T08:05:44;96797.00;;;18.60
19666;BMP180;9980;51.020;7.772;2022-10-24T08:08:24;96794.00;;;18.60
19666;BMP180;9980;51.020;7.772;2022-10-24T08:11:25;96812.00;;;18.60
19666;BMP180;9980;51.020;7.772;2022-10-24T08:14:05;96811.00;;;18.70
19666;BMP180;9980;51.020;7.772;2022-10-24T08:16:59;96815.00;;;18.70
19666;BMP180;9980;51.020;7.772;2022-10-24T08:19:32;96814.00;;;18.70
19666;BMP180;9980;51.020;7.772;2022-10-24T08:22:28;96821.00;;;18.70
19666;BMP180;9980;51.020;7.772;2022-10-24T08:25:03;96821.00;;;18.80
19666;BMP180;9980;51.020;7.772;2022-10-24T08:27:57;96831.00;;;18.80
19666;BMP180;9980;51.020;7.772;2022-10-24T08:30:41;96821.00;;;18.80
19666;BMP180;9980;51.020;7.772;2022-10-24T08:33:29;96819.00;;;18.80
19666;BMP180;9980;51.020;7.772;2022-10-24T08:36:29;96825.00;;;18.80
19666;BMP180;9980;51.020;7.772;2022-10-24T08:39:17;96833.00;;;18.90
19666;BMP180;9980;51.020;7.772;2022-10-24T08:42:04;96823.00;;;18.90
19666;BMP180;9980;51.020;7.772;2022-10-24T08:44:53;96824.00;;;19.00
19666;BMP180;9980;51.020;7.772;2022-10-24T08:48:12;96827.00;;;19.00
19666;BMP180;9980;51.020;7.772;2022-10-24T08:51:38;96823.00;;;19.10
19666;BMP180;9980;51.020;7.772;2022-10-24T08:54:23;96819.00;;;19.10
19666;BMP180;9980;51.020;7.772;2022-10-24T08:57:05;96825.00;;;19.10
19666;BMP180;9980;51.020;7.772;2022-10-24T08:59:59;96812.00;;;19.10
19666;BMP180;9980;51.020;7.772;2022-10-24T09:02:43;96825.00;;;19.20
19666;BMP180;9980;51.020;7.772;2022-10-24T09:05:50;96827.00;;;19.20
19666;BMP180;9980;51.020;7.772;2022-10-24T09:08:52;96811.00;;;19.20
19666;BMP180;9980;51.020;7.772;2022-10-24T09:12:02;96829.00;;;19.30
19666;BMP180;9980;51.020;7.772;2022-10-24T09:14:39;96816.00;;;19.30
19666;BMP180;9980;51.020;7.772;2022-10-24T09:17:34;96831.00;;;19.40
19666;BMP180;9980;51.020;7.772;2022-10-24T09:20:28;96812.00;;;19.40
19666;BMP180;9980;51.020;7.772;2022-10-24T09:23:13;96822.00;;;19.50
19666;BMP180;9980;51.020;7.772;2022-10-24T09:26:26;96820.00;;;19.50
19666;BMP180;9980;51.020;7.772;2022-10-24T09:29:08;96827.00;;;19.50
19666;BMP180;9980;51.020;7.772;2022-10-24T09:32:02;96817.00;;;19.60
19666;BMP180;9980;51.020;7.772;2022-10-24T09:34:44;96813.00;;;19.70
19666;BMP180;9980;51.020;7.772;2022-10-24T09:41:25;96830.00;;;19.80
19666;BMP180;9980;51.020;7.772;2022-10-24T09:44:37;96826.00;;;19.90
19666;BMP180;9980;51.020;7.772;2022-10-24T09:47:26;96834.00;;;19.90
19666;BMP180;9980;51.020;7.772;2022-10-24T09:50:24;96837.00;;;20.00
19666;BMP180;9980;51.020;7.772;2022-10-24T09:52:59;96835.00;;;20.10
19666;BMP180;9980;51.020;7.772;2022-10-24T09:56:08;96851.00;;;20.20
19666;BMP180;9980;51.020;7.772;2022-10-24T09:58:49;96851.00;;;20.30
19666;BMP180;9980;51.020;7.772;2022-10-24T10:01:43;96844.00;;;20.40
19666;BMP180;9980;51.020;7.772;2022-10-24T10:04:25;96842.00;;;20.50
19666;BMP180;9980;51.020;7.772;2022-10-24T10:07:26;96836.00;;;20.60
19666;BMP180;9980;51.020;7.772;2022-10-24T10:13:21;96848.00;;;20.80
19666;BMP180;9980;51.020;7.772;2022-10-24T10:16:06;96846.00;;;20.90
19666;BMP180;9980;51.020;7.772;2022-10-24T10:19:20;96859.00;;;20.90
19666;BMP180;9980;51.020;7.772;2022-10-24T10:22:19;96848.00;;;21.00
19666;BMP180;9980;51.020;7.772;2022-10-24T10:25:30;96867.00;;;21.10
19666;BMP180;9980;51.020;7.772;2022-10-24T10:28:22;96870.00;;;21.20
19666;BMP180;9980;51.020;7.772;2022-10-24T10:31:27;96884.00;;;21.20
19666;BMP180;9980;51.020;7.772;2022-10-24T10:34:19;96869.00;;;21.30
19666;BMP180;9980;51.020;7.772;2022-10-24T10:37:24;96882.00;;;21.30
19666;BMP180;9980;51.020;7.772;2022-10-24T10:43:44;96889.00;;;21.40
19666;BMP180;9980;51.020;7.772;2022-10-24T10:49:38;96904.00;;;21.40
19666;BMP180;9980;51.020;7.772;2022-10-24T10:52:43;96898.00;;;21.40
19666;BMP180;9980;51.020;7.772;2022-10-24T10:55:47;96889.00;;;21.40
19666;BMP180;9980;51.020;7.772;2022-10-24T11:02:39;96894.00;;;21.50
19666;BMP180;9980;51.020;7.772;2022-10-24T11:06:27;96891.00;;;21.50
19666;BMP180;9980;51.020;7.772;2022-10-24T11:09:32;96890.00;;;21.60
19666;BMP180;9980;51.020;7.772;2022-10-24T11:12:25;96882.00;;;21.60
19666;BMP180;9980;51.020;7.772;2022-10-24T11:15:28;96898.00;;;21.60
19666;BMP180;9980;51.020;7.772;2022-10-24T11:18:35;96909.00;;;21.60
19666;BMP180;9980;51.020;7.772;2022-10-24T11:21:21;96914.00;;;21.70
19666;BMP180;9980;51.020;7.772;2022-10-24T11:24:20;96914.00;;;21.60
19666;BMP180;9980;51.020;7.772;2022-10-24T11:27:31;96916.00;;;21.60
19666;BMP180;9980;51.020;7.772;2022-10-24T11:30:44;96908.00;;;21.50
19666;BMP180;9980;51.020;7.772;2022-10-24T11:33:34;96906.00;;;21.50
19666;BMP180;9980;51.020;7.772;2022-10-24T11:37:02;96913.00;;;21.50
19666;BMP180;9980;51.020;7.772;2022-10-24T11:39:56;96922.00;;;21.40
19666;BMP180;9980;51.020;7.772;2022-10-24T11:46:03;96917.00;;;21.40
19666;BMP180;9980;51.020;7.772;2022-10-24T11:49:07;96926.00;;;21.40
19666;BMP180;9980;51.020;7.772;2022-10-24T11:51:59;96909.00;;;21.40
19666;BMP180;9980;51.020;7.772;2022-10-24T11:55:07;96929.00;;;21.40
19666;BMP180;9980;51.020;7.772;2022-10-24T11:57:57;96931.00;;;21.40
19666;BMP180;9980;51.020;7.772;2022-10-24T12:15:01;96930.00;;;21.30
19666;BMP180;9980;51.020;7.772;2022-10-24T12:18:28;96923.00;;;21.30
19666;BMP180;9980;51.020;7.772;2022-10-24T12:21:32;96905.00;;;21.30
19666;BMP180;9980;51.020;7.772;2022-10-24T12:24:40;96913.00;;;21.30
19666;BMP180;9980;51.020;7.772;2022-10-24T12:27:38;96925.00;;;21.40
19666;BMP180;9980;51.020;7.772;2022-10-24T12:30:17;96918.00;;;21.40
19666;BMP180;9980;51.020;7.772;2022-10-24T12:33:25;96909.00;;;21.50
19666;BMP180;9980;51.020;7.772;2022-10-24T12:36:07;96924.00;;;21.50
19666;BMP180;9980;51.020;7.772;2022-10-24T12:41:38;96919.00;;;21.50
19666;BMP180;9980;51.020;7.772;2022-10-24T12:47:36;96926.00;;;21.50
19666;BMP180;9980;51.020;7.772;2022-10-24T12:53:36;96929.00;;;21.40
19666;BMP180;9980;51.020;7.772;2022-10-24T12:56:32;96929.00;;;21.40
19666;BMP180;9980;51.020;7.772;2022-10-24T12:59:34;96932.00;;;21.40
19666;BMP180;9980;51.020;7.772;2022-10-24T13:06:03;96916.00;;;21.30
19666;BMP180;9980;51.020;7.772;2022-10-24T13:19:06;96932.00;;;21.20
19666;BMP180;9980;51.020;7.772;2022-10-24T13:22:01;96931.00;;;21.20
19666;BMP180;9980;51.020;7.772;2022-10-24T13:24:37;96919.00;;;21.20
19666;BMP180;9980;51.020;7.772;2022-10-24T13:27:32;96913.00;;;21.10
19666;BMP180;9980;51.020;7.772;2022-10-24T13:30:24;96927.00;;;21.10
19666;BMP180;9980;51.020;7.772;2022-10-24T13:36:18;96918.00;;;21.00
19666;BMP180;9980;51.020;7.772;2022-10-24T13:39:15;96924.00;;;20.90
19666;BMP180;9980;51.020;7.772;2022-10-24T13:42:05;96924.00;;;20.90
19666;BMP180;9980;51.020;7.772;2022-10-24T13:45:18;96918.00;;;20.80
19666;BMP180;9980;51.020;7.772;2022-10-24T13:48:12;96909.00;;;20.80
19666;BMP180;9980;51.020;7.772;2022-10-24T13:51:25;96916.00;;;20.70
19666;BMP180;9980;51.020;7.772;2022-10-24T13:54:09;96909.00;;;20.70
19666;BMP180;9980;51.020;7.772;2022-10-24T13:57:29;96909.00;;;20.60
19666;BMP180;9980;51.020;7.772;2022-10-24T14:00:31;96924.00;;;20.60
19666;BMP180;9980;51.020;7.772;2022-10-24T14:03:24;96937.00;;;20.60
19666;BMP180;9980;51.020;7.772;2022-10-24T14:06:05;96944.00;;;20.60
19666;BMP180;9980;51.020;7.772;2022-10-24T14:09:00;96953.00;;;20.50
19666;BMP180;9980;51.020;7.772;2022-10-24T14:11:45;96954.00;;;20.50
19666;BMP180;9980;51.020;7.772;2022-10-24T14:14:38;96948.00;;;20.40
19666;BMP180;9980;51.020;7.772;2022-10-24T14:17:31;96958.00;;;20.30
19666;BMP180;9980;51.020;7.772;2022-10-24T14:20:26;96949.00;;;20.20
19666;BMP180;9980;51.020;7.772;2022-10-24T14:23:37;96942.00;;;20.10
19666;BMP180;9980;51.020;7.772;2022-10-24T14:26:31;96933.00;;;20.10
19666;BMP180;9980;51.020;7.772;2022-10-24T14:29:04;96954.00;;;20.00
19666;BMP180;9980;51.020;7.772;2022-10-24T14:32:13;96945.00;;;20.00
19666;BMP180;9980;51.020;7.772;2022-10-24T14:34:48;96941.00;;;20.00
19666;BMP180;9980;51.020;7.772;2022-10-24T14:37:43;96948.00;;;19.90
19666;BMP180;9980;51.020;7.772;2022-10-24T14:40:17;96943.00;;;19.90
19666;BMP180;9980;51.020;7.772;2022-10-24T14:43:41;96951.00;;;19.90
19666;BMP180;9980;51.020;7.772;2022-10-24T14:46:40;96959.00;;;19.90
19666;BMP180;9980;51.020;7.772;2022-10-24T14:49:32;96951.00;;;19.80
19666;BMP180;9980;51.020;7.772;2022-10-24T14:52:33;96951.00;;;19.80
19666;BMP180;9980;51.020;7.772;2022-10-24T14:55:28;96949.00;;;19.80
19666;BMP180;9980;51.020;7.772;2022-10-24T14:58:24;96960.00;;;19.80
19666;BMP180;9980;51.020;7.772;2022-10-24T15:01:21;96958.00;;;19.70
19666;BMP180;9980;51.020;7.772;2022-10-24T15:04:02;96954.00;;;19.70
19666;BMP180;9980;51.020;7.772;2022-10-24T15:06:56;96957.00;;;19.70
19666;BMP180;9980;51.020;7.772;2022-10-24T15:09:29;96977.00;;;19.70
19666;BMP180;9980;51.020;7.772;2022-10-24T15:18:42;96971.00;;;19.50
19666;BMP180;9980;51.020;7.772;2022-10-24T15:21:26;96968.00;;;19.50
19666;BMP180;9980;51.020;7.772;2022-10-24T15:24:23;96970.00;;;19.40
19666;BMP180;9980;51.020;7.772;2022-10-24T15:27:11;96967.00;;;19.40
19666;BMP180;9980;51.020;7.772;2022-10-24T15:29:58;96964.00;;;19.40
19666;BMP180;9980;51.020;7.772;2022-10-24T15:32:38;96954.00;;;19.40
19666;BMP180;9980;51.020;7.772;2022-10-24T15:35:26;96970.00;;;19.30
19666;BMP180;9980;51.020;7.772;2022-10-24T15:38:15;96967.00;;;19.30
19666;BMP180;9980;51.020;7.772;2022-10-24T15:41:09;96965.00;;;19.20
19666;BMP180;9980;51.020;7.772;2022-10-24T15:43:42;96979.00;;;19.30
19666;BMP180;9980;51.020;7.772;2022-10-24T15:46:36;96977.00;;;19.20
19666;BMP180;9980;51.020;7.772;2022-10-24T15:49:10;96980.00;;;19.20
19666;BMP180;9980;51.020;7.772;2022-10-24T15:52:06;96983.00;;;19.20
19666;BMP180;9980;51.020;7.772;2022-10-24T15:54:40;96982.00;;;19.20
19666;BMP180;9980;51.020;7.772;2022-10-24T15:57:34;96978.00;;;19.10
19666;BMP180;9980;51.020;7.772;2022-10-24T16:00:20;96969.00;;;19.10
19666;BMP180;9980;51.020;7.772;2022-10-24T16:03:21;96973.00;;;19.00
19666;BMP180;9980;51.020;7.772;2022-10-24T16:06:02;96980.00;;;19.00
19666;BMP180;9980;51.020;7.772;2022-10-24T16:08:49;96974.00;;;19.00
19666;BMP180;9980;51.020;7.772;2022-10-24T16:11:29;96984.00;;;19.00
19666;BMP180;9980;51.020;7.772;2022-10-24T16:14:23;96979.00;;;19.00
19666;BMP180;9980;51.020;7.772;2022-10-24T16:17:06;96976.00;;;19.00
19666;BMP180;9980;51.020;7.772;2022-10-24T16:19:53;96980.00;;;18.90
19666;BMP180;9980;51.020;7.772;2022-10-24T16:22:33;96987.00;;;18.90
19666;BMP180;9980;51.020;7.772;2022-10-24T16:25:28;96980.00;;;18.90
19666;BMP180;9980;51.020;7.772;2022-10-24T16:28:10;96990.00;;;18.90
19666;BMP180;9980;51.020;7.772;2022-10-24T16:31:05;96991.00;;;18.80
19666;BMP180;9980;51.020;7.772;2022-10-24T16:33:38;96997.00;;;18.90
19666;BMP180;9980;51.020;7.772;2022-10-24T16:36:32;97008.00;;;18.80
19666;BMP180;9980;51.020;7.772;2022-10-24T16:39:06;97008.00;;;18.80
19666;BMP180;9980;51.020;7.772;2022-10-24T16:42:02;96992.00;;;18.80
19666;BMP180;9980;51.020;7.772;2022-10-24T16:44:37;96998.00;;;18.80
19666;BMP180;9980;51.020;7.772;2022-10-24T16:47:31;97016.00;;;18.80
19666;BMP180;9980;51.020;7.772;2022-10-24T16:50:07;96998.00;;;18.80
19666;BMP180;9980;51.020;7.772;2022-10-24T16:53:04;97017.00;;;18.80
19666;BMP180;9980;51.020;7.772;2022-10-24T16:55:54;97007.00;;;18.80
19666;BMP180;9980;51.020;7.772;2022-10-24T16:58:42;96993.00;;;18.70
19666;BMP180;9980;51.020;7.772;2022-10-24T17:01:22;97002.00;;;18.70
19666;BMP180;9980;51.020;7.772;2022-10-24T17:04:09;97010.00;;;18.70
19666;BMP180;9980;51.020;7.772;2022-10-24T17:06:49;97007.00;;;18.70
19666;BMP180;9980;51.020;7.772;2022-10-24T17:09:36;97016.00;;;18.70
19666;BMP180;9980;51.020;7.772;2022-10-24T17:12:16;97021.00;;;18.70
19666;BMP180;9980;51.020;7.772;2022-10-24T17:15:05;97012.00;;;18.70
19666;BMP180;9980;51.020;7.772;2022-10-24T17:17:50;97019.00;;;18.70
19666;BMP180;9980;51.020;7.772;2022-10-24T17:20:44;97024.00;;;18.60
19666;BMP180;9980;51.020;7.772;2022-10-24T17:23:26;97016.00;;;18.60
19666;BMP180;9980;51.020;7.772;2022-10-24T17:26:20;97038.00;;;18.60
19666;BMP180;9980;51.020;7.772;2022-10-24T17:29:02;97019.00;;;18.60
19666;BMP180;9980;51.020;7.772;2022-10-24T17:31:57;97018.00;;;18.60
19666;BMP180;9980;51.020;7.772;2022-10-24T17:34:33;97038.00;;;18.50
19666;BMP180;9980;51.020;7.772;2022-10-24T17:38:06;97051.00;;;18.50
19666;BMP180;9980;51.020;7.772;2022-10-24T17:40:49;97036.00;;;18.50
19666;BMP180;9980;51.020;7.772;2022-10-24T17:43:43;97038.00;;;18.40
19666;BMP180;9980;51.020;7.772;2022-10-24T17:46:24;97046.00;;;18.40
19666;BMP180;9980;51.020;7.772;2022-10-24T17:49:12;97046.00;;;18.30
19666;BMP180;9980;51.020;7.772;2022-10-24T17:51:56;97052.00;;;18.30
19666;BMP180;9980;51.020;7.772;2022-10-24T17:54:43;97049.00;;;18.30
19666;BMP180;9980;51.020;7.772;2022-10-24T17:57:23;97061.00;;;18.30
19666;BMP180;9980;51.020;7.772;2022-10-24T18:00:11;97064.00;;;18.30
19666;BMP180;9980;51.020;7.772;2022-10-24T18:02:52;97060.00;;;18.30